createdAt,value
2019-01-21T00:01:34.186Z,96513.00
2019-01-21T00:06:55.483Z,96510.00
2019-01-21T00:12:07.483Z,96518.00
2019-01-21T00:17:28.639Z,96515.00
2019-01-21T00:22:49.696Z,96514.00
2019-01-21T00:28:10.290Z,96513.00
2019-01-21T00:33:31.633Z,96515.00
2019-01-21T00:38:34.542Z,96518.00
2019-01-21T00:43:41.263Z,96515.00
2019-01-21T00:49:02.530Z,96513.00
2019-01-21T00:54:08.495Z,96516.00
2019-01-21T00:59:14.657Z,96522.00
2019-01-21T01:04:26.400Z,96524.00
2019-01-21T01:09:47.580Z,96516.00
2019-01-21T01:14:53.775Z,96512.00
2019-01-21T01:20:00.384Z,96528.00
2019-01-21T01:25:05.274Z,96530.00
2019-01-21T01:30:18.774Z,96519.00
2019-01-21T01:35:24.479Z,96525.00
2019-01-21T01:40:36.791Z,96520.00
2019-01-21T01:45:44.591Z,96531.00
2019-01-21T01:50:48.019Z,96538.00
2019-01-21T01:55:54.754Z,96523.00
2019-01-21T02:01:06.907Z,96526.00
2019-01-21T02:06:14.913Z,96526.00
2019-01-21T02:11:22.611Z,96523.00
2019-01-21T02:16:31.383Z,96521.00
2019-01-21T02:21:40.303Z,96528.00
2019-01-21T02:27:08.770Z,96531.00
2019-01-21T02:32:37.264Z,96531.00
2019-01-21T02:38:40.238Z,96528.00
2019-01-21T02:44:36.635Z,96526.00
2019-01-21T02:50:11.607Z,96516.00
2019-01-21T02:56:04.103Z,96521.00
2019-01-21T03:01:56.152Z,96514.00
2019-01-21T03:07:24.920Z,96501.00
2019-01-21T03:12:50.146Z,96506.00
2019-01-21T03:18:36.100Z,96506.00
2019-01-21T03:24:30.810Z,96501.00
2019-01-21T03:30:22.792Z,96500.00
2019-01-21T03:36:04.418Z,96492.00
2019-01-21T03:41:25.584Z,96502.00
2019-01-21T03:46:57.781Z,96499.00
2019-01-21T03:52:41.270Z,96505.00
2019-01-21T03:58:31.765Z,96501.00
2019-01-21T04:04:21.625Z,96500.00
2019-01-21T04:10:24.756Z,96501.00
2019-01-21T04:16:19.045Z,96500.00
2019-01-21T04:21:59.881Z,96500.00
2019-01-21T04:28:27.138Z,96500.00
2019-01-21T04:33:57.062Z,96502.00
2019-01-21T04:39:29.301Z,96489.00
2019-01-21T04:45:12.821Z,96506.00
2019-01-21T04:58:03.024Z,96508.00
2019-01-21T05:03:25.971Z,96495.00
2019-01-21T05:09:04.844Z,96497.00
2019-01-21T05:15:06.119Z,96493.00
2019-01-21T05:21:13.623Z,96500.00
2019-01-21T05:26:42.361Z,96492.00
2019-01-21T05:32:17.975Z,96500.00
2019-01-21T05:38:05.977Z,96497.00
2019-01-21T06:02:31.255Z,96508.00
2019-01-21T06:08:32.747Z,96517.00
2019-01-21T06:14:39.437Z,96519.00
2019-01-21T06:20:32.778Z,96521.00
2019-01-21T06:26:13.575Z,96527.00
2019-01-21T06:31:45.135Z,96521.00
2019-01-21T06:37:11.705Z,96541.00
2019-01-21T06:43:03.128Z,96538.00
2019-01-21T06:49:04.646Z,96537.00
2019-01-21T06:54:31.368Z,96540.00
2019-01-21T07:00:02.666Z,96553.00
2019-01-21T07:06:10.634Z,96557.00
2019-01-21T07:11:50.775Z,96554.00
2019-01-21T07:17:30.739Z,96549.00
2019-01-21T07:23:14.983Z,96557.00
2019-01-21T07:29:08.051Z,96559.00
2019-01-21T07:34:46.061Z,96562.00
2019-01-21T07:40:14.959Z,96566.00
2019-01-21T07:45:51.945Z,96571.00
2019-01-21T07:51:51.115Z,96579.00
2019-01-21T07:57:18.371Z,96579.00
2019-01-21T08:02:48.195Z,96576.00
2019-01-21T08:08:25.525Z,96575.00
2019-01-21T08:14:10.596Z,96587.00
2019-01-21T08:20:00.611Z,96587.00
2019-01-21T08:26:18.140Z,96585.00
2019-01-21T08:31:33.328Z,96586.00
2019-01-21T08:37:09.791Z,96592.00
2019-01-21T08:54:58.239Z,96595.00
2019-01-21T09:00:42.415Z,96602.00
2019-01-21T09:06:26.803Z,96596.00
2019-01-21T09:12:10.148Z,96599.00
2019-01-21T09:17:43.662Z,96611.00
2019-01-21T09:23:37.264Z,96611.00
2019-01-21T09:29:12.683Z,96618.00
2019-01-21T09:34:59.187Z,96617.00
2019-01-21T09:40:31.996Z,96618.00
2019-01-21T09:45:59.602Z,96614.00
2019-01-21T09:51:06.983Z,96612.00
2019-01-21T09:56:30.955Z,96620.00
2019-01-21T10:01:38.320Z,96613.00
2019-01-21T10:06:45.700Z,96618.00
2019-01-21T10:12:55.414Z,96613.00
2019-01-21T10:18:18.067Z,96614.00
2019-01-21T10:24:19.095Z,96611.00
2019-01-21T10:30:43.102Z,96604.00
2019-01-21T10:36:35.915Z,96598.00
2019-01-21T10:42:03.819Z,96589.00
2019-01-21T10:47:32.937Z,96585.00
2019-01-21T10:52:52.396Z,96583.00
2019-01-21T10:58:26.471Z,96586.00
2019-01-21T11:03:59.095Z,96579.00
2019-01-21T11:09:29.811Z,96575.00
2019-01-21T11:15:06.387Z,96573.00
2019-01-21T11:21:13.387Z,96568.00
2019-01-21T11:26:59.999Z,96559.00
2019-01-21T11:32:37.973Z,96555.00
2019-01-21T11:38:25.111Z,96563.00
2019-01-21T11:44:04.302Z,96551.00
2019-01-21T11:50:02.882Z,96547.00
2019-01-21T11:55:50.608Z,96548.00
2019-01-21T12:01:42.798Z,96549.00
2019-01-21T12:07:09.873Z,96543.00
2019-01-21T12:12:43.543Z,96540.00
2019-01-21T12:18:51.998Z,96530.00
2019-01-21T12:24:25.035Z,96526.00
2019-01-21T12:30:26.491Z,96517.00
2019-01-21T12:36:23.038Z,96515.00
2019-01-21T12:42:15.328Z,96510.00
2019-01-21T12:47:30.088Z,96511.00
2019-01-21T12:53:32.536Z,96490.00
2019-01-21T12:59:19.184Z,96496.00
2019-01-21T13:05:14.910Z,96494.00
2019-01-21T13:10:52.346Z,96490.00
2019-01-21T13:16:53.963Z,96476.00
2019-01-21T13:22:44.543Z,96462.00
2019-01-21T13:35:10.815Z,96462.00
2019-01-21T13:40:39.867Z,96455.00
2019-01-21T13:46:32.687Z,96459.00
2019-01-21T13:52:18.692Z,96460.00
2019-01-21T13:58:35.485Z,96453.00
2019-01-21T14:03:57.124Z,96449.00
2019-01-21T14:09:49.085Z,96446.00
2019-01-21T14:15:41.618Z,96443.00
2019-01-21T14:28:08.138Z,96433.00
2019-01-21T14:39:40.168Z,96431.00
2019-01-21T14:57:37.286Z,96432.00
2019-01-21T15:03:17.836Z,96433.00
2019-01-21T15:08:55.933Z,96429.00
2019-01-21T15:14:14.866Z,96420.00
2019-01-21T15:20:04.121Z,96425.00
2019-01-21T15:26:03.515Z,96431.00
2019-01-21T15:32:00.194Z,96414.00
2019-01-21T15:43:51.158Z,96412.00
2019-01-21T15:49:26.410Z,96411.00
2019-01-21T15:55:07.710Z,96409.00
2019-01-21T16:01:06.240Z,96421.00
2019-01-21T16:06:27.379Z,96410.00
2019-01-21T16:12:10.867Z,96410.00
2019-01-21T16:17:52.455Z,96401.00
2019-01-21T16:24:07.451Z,96405.00
2019-01-21T16:29:34.962Z,96407.00
2019-01-21T16:35:33.568Z,96407.00
2019-01-21T16:41:13.902Z,96407.00
2019-01-21T16:46:26.187Z,96398.00
2019-01-21T16:51:47.341Z,96404.00
2019-01-21T16:56:50.161Z,96400.00
2019-01-21T17:01:53.155Z,96396.00
2019-01-21T17:07:15.447Z,96393.00
2019-01-21T17:12:18.276Z,96391.00
2019-01-21T17:17:22.450Z,96384.00
2019-01-21T17:22:43.551Z,96384.00
2019-01-21T17:27:57.702Z,96382.00
2019-01-21T17:33:18.639Z,96388.00
2019-01-21T17:38:38.503Z,96393.00
2019-01-21T17:43:49.617Z,96386.00
2019-01-21T17:49:11.086Z,96383.00
2019-01-21T17:54:35.217Z,96395.00
2019-01-21T17:59:55.609Z,96401.00
2019-01-21T18:04:58.916Z,96397.00
2019-01-21T18:10:22.009Z,96396.00
2019-01-21T18:15:30.344Z,96390.00
2019-01-21T18:20:33.339Z,96379.00
2019-01-21T18:25:54.566Z,96389.00
2019-01-21T18:31:02.543Z,96389.00
2019-01-21T18:36:15.859Z,96389.00
2019-01-21T18:41:20.583Z,96390.00
2019-01-21T18:46:33.428Z,96399.00
2019-01-21T18:51:36.555Z,96392.00
2019-01-21T18:56:39.696Z,96377.00
2019-01-21T19:01:44.189Z,96375.00
2019-01-21T19:06:48.803Z,96361.00
2019-01-21T19:12:00.719Z,96377.00
2019-01-21T19:17:22.704Z,96382.00
2019-01-21T19:22:30.524Z,96376.00
2019-01-21T19:27:35.041Z,96378.00
2019-01-21T19:32:48.006Z,96376.00
2019-01-21T19:38:09.613Z,96385.00
2019-01-21T19:43:22.412Z,96374.00
2019-01-21T19:48:25.467Z,96370.00
2019-01-21T19:53:46.599Z,96371.00
2019-01-21T19:59:51.080Z,96378.00
2019-01-21T20:05:04.556Z,96380.00
2019-01-21T20:10:27.643Z,96377.00
2019-01-21T20:15:38.259Z,96380.00
2019-01-21T20:20:59.164Z,96372.00
2019-01-21T20:33:24.019Z,96368.00
2019-01-21T20:38:46.190Z,96369.00
2019-01-21T21:15:17.592Z,96359.00
2019-01-21T21:20:20.971Z,96343.00
2019-01-21T21:25:42.298Z,96334.00
2019-01-21T21:30:45.431Z,96337.00
2019-01-21T21:36:06.256Z,96334.00
2019-01-21T21:41:12.565Z,96333.00
2019-01-21T21:46:16.207Z,96331.00
2019-01-21T21:51:19.259Z,96333.00
2019-01-21T21:56:27.497Z,96330.00
2019-01-21T22:01:40.072Z,96318.00
2019-01-21T22:06:42.965Z,96321.00
2019-01-21T22:11:49.131Z,96331.00
2019-01-21T22:16:57.904Z,96338.00
2019-01-21T22:22:19.316Z,96337.00
2019-01-21T22:27:22.080Z,96331.00
2019-01-21T22:32:43.383Z,96342.00
2019-01-21T22:37:47.150Z,96329.00
2019-01-21T22:42:50.248Z,96329.00
2019-01-21T22:47:55.136Z,96330.00
2019-01-21T22:53:16.501Z,96330.00
2019-01-21T22:58:24.140Z,96338.00
2019-01-21T23:03:29.946Z,96322.00
2019-01-21T23:08:42.243Z,96321.00
2019-01-21T23:13:45.408Z,96321.00
2019-01-21T23:18:50.425Z,96317.00
2019-01-21T23:23:54.885Z,96305.00
2019-01-21T23:29:02.962Z,96290.00
2019-01-21T23:34:07.507Z,96309.00
2019-01-21T23:39:11.787Z,96298.00
2019-01-21T23:44:14.640Z,96291.00
2019-01-21T23:49:19.723Z,96282.00
2019-01-21T23:54:41.076Z,96287.00
2019-01-21T23:59:46.054Z,96273.00
